Time;durP1;ratioP1;P1;durP2;ratioP2;P2;SDS_P1;SDS_P2;PMS_P1;PMS_P2;Temp;Humidity;BMP_temperature;BMP_pressure;BME280_temperature;BME280_humidity;BME280_pressure;Samples;Min_cycle;Max_cycle;Signal;HPM_P1;HPM_P2
2021/10/23 00:01:49;;;;;;;;;;;23.50;46.10;;;;;;1622040;73;732;-58
2021/10/23 00:03:51;;;;;;;;;;;23.60;46.10;;;;;;1623205;73;771;-59
2021/10/23 00:05:53;;;;;;;;;;;23.50;46.20;;;;;;1622106;73;1148;-59
2021/10/23 00:07:55;;;;;;;;;;;23.60;46.10;;;;;;1624441;73;751;-59
2021/10/23 00:09:57;;;;;;;;;;;23.50;46.20;;;;;;1623956;73;809;-58
2021/10/23 00:11:58;;;;;;;;;;;23.60;46.10;;;;;;1623976;73;1948;-60
2021/10/23 00:14:00;;;;;;;;;;;23.50;46.20;;;;;;1624152;73;734;-59
2021/10/23 00:16:02;;;;;;;;;;;23.50;46.20;;;;;;1624008;73;1144;-59
2021/10/23 00:18:04;;;;;;;;;;;23.50;46.20;;;;;;1621063;73;723;-60
2021/10/23 00:20:06;;;;;;;;;;;23.50;46.20;;;;;;1620299;73;721;-59
2021/10/23 00:22:08;;;;;;;;;;;23.50;46.30;;;;;;1623717;73;702;-60
2021/10/23 00:24:10;;;;;;;;;;;23.50;46.30;;;;;;1622510;73;703;-60
2021/10/23 00:26:12;;;;;;;;;;;23.50;46.30;;;;;;1623710;73;1086;-60
2021/10/23 00:28:14;;;;;;;;;;;23.50;46.40;;;;;;1624450;73;572;-59
2021/10/23 00:30:16;;;;;;;;;;;23.50;46.30;;;;;;1622342;73;786;-60
2021/10/23 00:32:18;;;;;;;;;;;23.50;46.30;;;;;;1621181;73;1878;-59
2021/10/23 00:34:20;;;;;;;;;;;23.50;46.30;;;;;;1623734;73;1258;-59
2021/10/23 00:36:22;;;;;;;;;;;23.50;46.30;;;;;;1624463;73;894;-59
2021/10/23 00:38:24;;;;;;;;;;;23.50;46.30;;;;;;1621776;73;779;-60
2021/10/23 00:40:26;;;;;;;;;;;23.50;46.40;;;;;;1622219;73;807;-60
2021/10/23 00:42:28;;;;;;;;;;;23.60;46.30;;;;;;1607187;73;793;-59
2021/10/23 00:44:37;;;;;;;;;;;23.50;46.20;;;;;;1623224;73;1142;-60
2021/10/23 00:46:39;;;;;;;;;;;23.50;46.20;;;;;;1614041;73;1750;-61
2021/10/23 00:48:41;;;;;;;;;;;23.50;46.20;;;;;;1620707;73;765;-61
2021/10/23 00:50:46;;;;;;;;;;;23.50;46.20;;;;;;1603878;73;1969;-60
2021/10/23 00:52:49;;;;;;;;;;;23.50;46.20;;;;;;1623158;73;887;-60
2021/10/23 00:54:51;;;;;;;;;;;23.50;46.20;;;;;;1615959;73;1086;-59
2021/10/23 00:56:53;;;;;;;;;;;23.50;46.30;;;;;;1619453;73;764;-60
2021/10/23 00:58:55;;;;;;;;;;;23.50;46.30;;;;;;1605074;73;874;-60
2021/10/23 01:00:57;;;;;;;;;;;23.50;46.30;;;;;;1623511;73;761;-60
2021/10/23 01:02:59;;;;;;;;;;;23.50;46.30;;;;;;1614248;73;719;-59
2021/10/23 01:05:02;;;;;;;;;;;23.50;46.40;;;;;;1616589;73;1133;-59
2021/10/23 01:07:04;;;;;;;;;;;23.50;46.40;;;;;;1608564;73;810;-59
2021/10/23 01:09:06;;;;;;;;;;;23.50;46.40;;;;;;1624711;73;716;-59
2021/10/23 01:11:08;;;;;;;;;;;23.50;46.50;;;;;;1624357;73;1919;-58
2021/10/23 01:13:11;;;;;;;;;;;23.50;46.50;;;;;;1611554;73;778;-59
2021/10/23 01:15:16;;;;;;;;;;;23.40;46.30;;;;;;1619929;73;1142;-60
2021/10/23 01:17:21;;;;;;;;;;;23.50;46.30;;;;;;1613837;73;800;-59
2021/10/23 01:19:23;;;;;;;;;;;23.50;46.30;;;;;;1608533;73;731;-59
2021/10/23 01:21:25;;;;;;;;;;;23.50;46.40;;;;;;1624496;73;751;-60
2021/10/23 01:23:27;;;;;;;;;;;23.50;46.40;;;;;;1624641;73;752;-60
2021/10/23 01:25:30;;;;;;;;;;;23.50;46.50;;;;;;1624665;73;1121;-61
2021/10/23 01:27:31;;;;;;;;;;;23.50;46.40;;;;;;1620283;73;716;-60
2021/10/23 01:29:33;;;;;;;;;;;23.50;46.40;;;;;;1612318;73;720;-61
2021/10/23 01:31:35;;;;;;;;;;;23.50;46.50;;;;;;1624696;73;1944;-61
2021/10/23 01:33:37;;;;;;;;;;;23.50;46.50;;;;;;1607485;73;817;-60
2021/10/23 01:35:39;;;;;;;;;;;23.50;46.50;;;;;;1624782;73;1251;-60
2021/10/23 01:37:42;;;;;;;;;;;23.50;46.50;;;;;;1616993;73;747;-60
2021/10/23 01:39:44;;;;;;;;;;;23.50;46.50;;;;;;1624470;73;726;-60
2021/10/23 01:41:46;;;;;;;;;;;23.50;46.60;;;;;;1610001;73;650;-60
2021/10/23 01:43:48;;;;;;;;;;;23.50;46.60;;;;;;1602205;73;798;-60
2021/10/23 01:45:50;;;;;;;;;;;23.50;46.60;;;;;;1615979;73;1127;-59
2021/10/23 01:47:52;;;;;;;;;;;23.50;46.60;;;;;;1612976;73;799;-60
2021/10/23 01:49:54;;;;;;;;;;;23.50;46.60;;;;;;1615175;73;699;-59
2021/10/23 01:51:56;;;;;;;;;;;23.50;46.70;;;;;;1623542;73;1916;-60
2021/10/23 01:53:58;;;;;;;;;;;23.50;46.70;;;;;;1623445;73;760;-60
2021/10/23 01:56:01;;;;;;;;;;;23.50;46.70;;;;;;1618793;73;1155;-61
2021/10/23 01:58:03;;;;;;;;;;;23.50;46.70;;;;;;1618020;72;1683;-59
2021/10/23 02:00:05;;;;;;;;;;;23.50;46.70;;;;;;1596180;74;742;-59
2021/10/23 02:02:07;;;;;;;;;;;23.50;46.80;;;;;;1592879;74;706;-59
2021/10/23 02:04:09;;;;;;;;;;;23.60;46.90;;;;;;1585791;74;799;-60
2021/10/23 02:06:11;;;;;;;;;;;23.50;46.90;;;;;;1585779;74;1096;-59
2021/10/23 02:08:13;;;;;;;;;;;23.50;46.90;;;;;;1586145;73;218594;-71
2021/10/23 02:10:14;;;;;;;;;;;23.50;46.90;;;;;;1561250;75;726;-71
2021/10/23 02:12:16;;;;;;;;;;;23.50;46.90;;;;;;1561416;74;1931;-71
2021/10/23 02:14:18;;;;;;;;;;;23.50;47.00;;;;;;1567981;74;796;-71
2021/10/23 02:16:20;;;;;;;;;;;23.50;47.00;;;;;;1561849;75;1197;-72
2021/10/23 02:18:22;;;;;;;;;;;23.50;46.90;;;;;;1568712;75;829;-72
2021/10/23 02:20:25;;;;;;;;;;;23.60;47.00;;;;;;1572724;74;227010;-58
2021/10/23 02:22:27;;;;;;;;;;;23.50;47.00;;;;;;1568996;74;685;-59
2021/10/23 02:24:29;;;;;;;;;;;23.60;46.90;;;;;;1564324;74;1219;-58
2021/10/23 02:26:31;;;;;;;;;;;23.50;47.10;;;;;;1615400;73;671;-58
2021/10/23 02:28:33;;;;;;;;;;;23.50;47.30;;;;;;1583987;74;807;-57
2021/10/23 02:30:35;;;;;;;;;;;23.50;47.20;;;;;;1567018;73;661;-55
2021/10/23 02:32:37;;;;;;;;;;;23.50;47.40;;;;;;1572531;73;1939;-58
2021/10/23 02:34:39;;;;;;;;;;;23.50;47.40;;;;;;1583832;73;1107;-58
2021/10/23 02:36:41;;;;;;;;;;;23.50;47.50;;;;;;1573429;73;745;-59
2021/10/23 02:38:43;;;;;;;;;;;23.60;47.60;;;;;;1572406;73;778;-57
2021/10/23 02:40:45;;;;;;;;;;;23.60;47.60;;;;;;1576865;73;702;-58
2021/10/23 02:42:47;;;;;;;;;;;23.60;47.70;;;;;;1573283;73;773;-58
2021/10/23 02:44:49;;;;;;;;;;;23.60;47.60;;;;;;1575599;73;1265;-57
2021/10/23 02:46:51;;;;;;;;;;;23.60;47.60;;;;;;1589547;73;694;-55
2021/10/23 02:48:52;;;;;;;;;;;23.60;47.70;;;;;;1573701;73;695;-54
2021/10/23 02:50:54;;;;;;;;;;;23.60;47.70;;;;;;1578743;73;740;-55
2021/10/23 02:52:56;;;;;;;;;;;23.60;47.60;;;;;;1586144;73;1961;-60
2021/10/23 02:54:58;;;;;;;;;;;23.60;47.60;;;;;;1586533;73;1133;-59
2021/10/23 02:57:00;;;;;;;;;;;23.70;47.60;;;;;;1589632;73;751;-56
2021/10/23 02:59:02;;;;;;;;;;;23.70;47.60;;;;;;1590295;73;687;-59
2021/10/23 03:01:04;;;;;;;;;;;23.70;47.60;;;;;;1570224;73;812;-60
2021/10/23 03:03:06;;;;;;;;;;;23.70;47.50;;;;;;1575953;73;930;-58
2021/10/23 03:05:08;;;;;;;;;;;23.70;47.50;;;;;;1573983;73;1137;-59
2021/10/23 03:07:10;;;;;;;;;;;23.70;47.40;;;;;;1544739;74;732;-59
2021/10/23 03:09:15;;;;;;;;;;;23.70;47.40;;;;;;1615915;73;687;-58
2021/10/23 03:11:16;;;;;;;;;;;23.70;47.30;;;;;;1587816;73;801;-59
2021/10/23 03:13:18;;;;;;;;;;;23.70;47.30;;;;;;1621410;73;1926;-58
2021/10/23 03:15:20;;;;;;;;;;;23.70;47.30;;;;;;1611886;72;1156;-59
2021/10/23 03:17:22;;;;;;;;;;;23.70;47.20;;;;;;1599761;73;764;-58
2021/10/23 03:19:24;;;;;;;;;;;23.70;47.20;;;;;;1593032;73;839;-58
2021/10/23 03:21:26;;;;;;;;;;;23.70;47.20;;;;;;1584472;74;771;-60
2021/10/23 03:23:28;;;;;;;;;;;23.80;47.20;;;;;;1604974;73;771;-61
2021/10/23 03:25:30;;;;;;;;;;;23.70;47.10;;;;;;1608097;72;1157;-58
2021/10/23 03:27:32;;;;;;;;;;;23.70;47.00;;;;;;1603722;73;764;-59
2021/10/23 03:29:33;;;;;;;;;;;23.70;47.10;;;;;;1601493;73;812;-61
2021/10/23 03:31:35;;;;;;;;;;;23.80;47.10;;;;;;1561774;74;1939;-59
2021/10/23 03:33:38;;;;;;;;;;;23.80;47.10;;;;;;1568264;73;689;-58
2021/10/23 03:35:40;;;;;;;;;;;23.80;47.10;;;;;;1576286;73;1124;-59
2021/10/23 03:37:41;;;;;;;;;;;23.80;47.00;;;;;;1571857;73;749;-58
2021/10/23 03:39:43;;;;;;;;;;;23.80;47.00;;;;;;1586501;73;795;-58
2021/10/23 03:41:45;;;;;;;;;;;23.80;47.00;;;;;;1578849;73;780;-58
2021/10/23 03:43:47;;;;;;;;;;;23.90;47.10;;;;;;1571147;73;683;-61
2021/10/23 03:45:49;;;;;;;;;;;23.90;47.10;;;;;;1567403;73;1160;-62
2021/10/23 03:47:51;;;;;;;;;;;23.90;47.10;;;;;;1583713;73;812;-59
2021/10/23 03:49:53;;;;;;;;;;;23.80;47.00;;;;;;1580807;73;687;-58
2021/10/23 03:51:55;;;;;;;;;;;23.90;47.10;;;;;;1580467;73;1927;-58
2021/10/23 03:53:57;;;;;;;;;;;23.80;46.90;;;;;;1580180;73;755;-58
2021/10/23 03:55:58;;;;;;;;;;;23.90;47.10;;;;;;1567058;73;1142;-57
2021/10/23 03:58:00;;;;;;;;;;;23.80;47.00;;;;;;1576325;73;713;-60
2021/10/23 04:00:04;;;;;;;;;;;23.80;47.00;;;;;;1575991;73;785;-61
2021/10/23 04:02:06;;;;;;;;;;;23.90;47.10;;;;;;1568619;73;706;-62
2021/10/23 04:04:08;;;;;;;;;;;23.90;47.10;;;;;;1575929;73;721;-60
2021/10/23 04:06:10;;;;;;;;;;;23.70;47.00;;;;;;1585787;73;1112;-59
2021/10/23 04:08:12;;;;;;;;;;;23.80;47.00;;;;;;1573154;73;787;-60
2021/10/23 04:10:14;;;;;;;;;;;23.80;47.10;;;;;;1565208;73;757;-60
2021/10/23 04:12:16;;;;;;;;;;;23.80;47.10;;;;;;1570402;73;1932;-57
2021/10/23 04:14:18;;;;;;;;;;;23.80;47.10;;;;;;1578267;73;866;-57
2021/10/23 04:16:20;;;;;;;;;;;23.80;47.10;;;;;;1569579;73;1105;-60
2021/10/23 04:18:21;;;;;;;;;;;23.70;47.10;;;;;;1575762;73;766;-60
2021/10/23 04:20:23;;;;;;;;;;;23.80;47.20;;;;;;1580438;73;737;-60
2021/10/23 04:22:25;;;;;;;;;;;23.80;47.10;;;;;;1581531;73;822;-60
2021/10/23 04:24:27;;;;;;;;;;;23.80;47.10;;;;;;1587113;73;1183;-59
2021/10/23 04:26:29;;;;;;;;;;;23.70;47.20;;;;;;1572172;73;690;-59
2021/10/23 04:28:31;;;;;;;;;;;23.70;47.20;;;;;;1562471;73;780;-60
2021/10/23 04:30:33;;;;;;;;;;;23.70;47.20;;;;;;1568177;73;737;-59
2021/10/23 04:32:35;;;;;;;;;;;23.70;47.30;;;;;;1589077;73;1937;-58
2021/10/23 04:34:37;;;;;;;;;;;23.80;47.30;;;;;;1579244;73;1164;-57
2021/10/23 04:36:39;;;;;;;;;;;23.70;47.30;;;;;;1575804;73;775;-60
2021/10/23 04:38:41;;;;;;;;;;;23.70;47.30;;;;;;1582980;73;725;-59
2021/10/23 04:40:43;;;;;;;;;;;23.70;47.30;;;;;;1579296;73;797;-60
2021/10/23 04:42:45;;;;;;;;;;;23.70;47.40;;;;;;1577542;73;743;-58
2021/10/23 04:44:47;;;;;;;;;;;23.70;47.40;;;;;;1570232;73;1066;-59
2021/10/23 04:46:49;;;;;;;;;;;23.70;47.50;;;;;;1574218;73;724;-60
2021/10/23 04:48:51;;;;;;;;;;;23.70;47.50;;;;;;1565918;73;731;-59
2021/10/23 04:50:53;;;;;;;;;;;23.80;47.40;;;;;;1589484;73;704;-62
2021/10/23 04:52:55;;;;;;;;;;;23.80;47.50;;;;;;1583775;73;1941;-59
2021/10/23 04:54:57;;;;;;;;;;;23.80;47.40;;;;;;1579465;73;1164;-59
2021/10/23 04:56:58;;;;;;;;;;;23.80;47.40;;;;;;1573347;73;754;-58
2021/10/23 04:59:00;;;;;;;;;;;23.80;47.40;;;;;;1572553;73;811;-56
2021/10/23 05:01:02;;;;;;;;;;;23.80;47.30;;;;;;1587909;73;726;-59
2021/10/23 05:03:04;;;;;;;;;;;23.80;47.30;;;;;;1565868;73;776;-61
2021/10/23 05:05:06;;;;;;;;;;;23.80;47.30;;;;;;1570038;73;1214;-60
2021/10/23 05:07:08;;;;;;;;;;;23.70;47.30;;;;;;1576090;73;752;-60
2021/10/23 05:09:10;;;;;;;;;;;23.80;47.30;;;;;;1576292;73;685;-60
2021/10/23 05:11:12;;;;;;;;;;;23.80;47.30;;;;;;1576107;73;781;-59
2021/10/23 05:13:14;;;;;;;;;;;23.80;47.30;;;;;;1566616;73;1933;-58
2021/10/23 05:15:16;;;;;;;;;;;23.80;47.30;;;;;;1570530;73;1093;-58
2021/10/23 05:17:18;;;;;;;;;;;23.80;47.30;;;;;;1568468;74;560;-59
2021/10/23 05:19:20;;;;;;;;;;;23.80;47.30;;;;;;1598492;73;665;-57
2021/10/23 05:21:21;;;;;;;;;;;23.80;47.30;;;;;;1617865;73;759;-59
2021/10/23 05:23:23;;;;;;;;;;;23.80;47.40;;;;;;1621921;73;721;-58
2021/10/23 05:25:25;;;;;;;;;;;23.80;47.30;;;;;;1584602;73;1164;-59
2021/10/23 05:27:27;;;;;;;;;;;23.80;47.20;;;;;;1576679;73;760;-61
2021/10/23 05:29:29;;;;;;;;;;;23.90;47.30;;;;;;1610300;73;777;-59
2021/10/23 05:31:31;;;;;;;;;;;23.90;47.30;;;;;;1601564;73;743;-57
2021/10/23 05:33:33;;;;;;;;;;;23.80;47.10;;;;;;1610419;73;1932;-57
2021/10/23 05:35:34;;;;;;;;;;;23.80;47.20;;;;;;1617062;72;1135;-59
2021/10/23 05:37:36;;;;;;;;;;;23.80;47.30;;;;;;1608826;73;713;-59
2021/10/23 05:39:38;;;;;;;;;;;23.70;47.30;;;;;;1604786;73;713;-59
2021/10/23 05:41:40;;;;;;;;;;;23.80;47.30;;;;;;1608756;73;734;-59
2021/10/23 05:43:42;;;;;;;;;;;23.80;47.30;;;;;;1603649;72;738;-59
2021/10/23 05:45:44;;;;;;;;;;;23.80;47.30;;;;;;1580929;74;1234;-59
2021/10/23 05:47:46;;;;;;;;;;;23.80;47.30;;;;;;1603627;73;710;-57
2021/10/23 05:49:48;;;;;;;;;;;23.80;47.30;;;;;;1602374;73;728;-58
2021/10/23 05:51:50;;;;;;;;;;;23.70;47.40;;;;;;1606358;73;699;-58
2021/10/23 05:53:52;;;;;;;;;;;23.80;47.50;;;;;;1603526;73;1916;-59
2021/10/23 05:55:54;;;;;;;;;;;23.80;47.50;;;;;;1610304;73;1197;-59
2021/10/23 05:57:56;;;;;;;;;;;23.80;47.60;;;;;;1611390;73;643;-58
2021/10/23 06:00:04;;;;;;;;;;;23.90;47.60;;;;;;1609773;73;723;-57
2021/10/23 06:02:11;;;;;;;;;;;23.80;47.60;;;;;;1607469;73;1721;-60
2021/10/23 06:04:05;;;;;;;;;;;23.90;47.60;;;;;;1608242;73;1137;-59
2021/10/23 06:06:08;;;;;;;;;;;23.80;47.60;;;;;;1608291;73;1122;-56
2021/10/23 06:08:10;;;;;;;;;;;23.80;47.60;;;;;;1615889;73;810;-59
2021/10/23 06:10:12;;;;;;;;;;;23.80;47.60;;;;;;1603165;73;668;-60
2021/10/23 06:12:14;;;;;;;;;;;23.90;47.70;;;;;;1615496;73;828;-57
2021/10/23 06:14:16;;;;;;;;;;;23.90;47.80;;;;;;1586952;72;1943;-57
2021/10/23 06:16:18;;;;;;;;;;;23.90;47.80;;;;;;1593684;72;1121;-58
2021/10/23 06:18:20;;;;;;;;;;;23.90;47.90;;;;;;1582046;74;798;-59
2021/10/23 06:20:22;;;;;;;;;;;24.00;47.50;;;;;;1603934;73;642;-58
2021/10/23 06:22:24;;;;;;;;;;;24.00;47.20;;;;;;1610409;73;763;-58
2021/10/23 06:24:26;;;;;;;;;;;24.00;47.00;;;;;;1596753;73;1149;-58
2021/10/23 06:26:28;;;;;;;;;;;24.00;47.20;;;;;;1587701;73;840;-58
2021/10/23 06:28:30;;;;;;;;;;;24.00;47.50;;;;;;1563067;74;870;-59
2021/10/23 06:30:31;;;;;;;;;;;24.10;47.90;;;;;;1573888;73;811;-60
2021/10/23 06:32:33;;;;;;;;;;;24.10;47.90;;;;;;1588171;73;1936;-59
2021/10/23 06:34:39;;;;;;;;;;;24.10;48.00;;;;;;1566055;73;1152;-59
2021/10/23 06:36:39;;;;;;;;;;;24.20;47.90;;;;;;1577865;73;1694;-58
2021/10/23 06:38:41;;;;;;;;;;;24.20;47.80;;;;;;1585842;73;753;-58
2021/10/23 06:40:42;;;;;;;;;;;24.20;47.80;;;;;;1587142;73;755;-60
2021/10/23 06:42:44;;;;;;;;;;;24.30;47.90;;;;;;1582936;73;770;-59
2021/10/23 06:44:46;;;;;;;;;;;24.30;47.60;;;;;;1576032;73;1173;-60
2021/10/23 06:46:48;;;;;;;;;;;24.30;47.60;;;;;;1566991;73;774;-60
2021/10/23 06:48:53;;;;;;;;;;;24.30;47.60;;;;;;1580792;73;768;-57
2021/10/23 06:50:55;;;;;;;;;;;24.40;47.60;;;;;;1568213;73;770;-60
2021/10/23 06:52:57;;;;;;;;;;;24.40;47.30;;;;;;1572484;73;1935;-59
2021/10/23 06:54:59;;;;;;;;;;;24.50;47.10;;;;;;1571006;73;1133;-59
2021/10/23 06:57:00;;;;;;;;;;;24.40;46.70;;;;;;1569027;73;711;-59
2021/10/23 06:59:02;;;;;;;;;;;24.30;46.70;;;;;;1574728;73;661;-59
2021/10/23 07:01:05;;;;;;;;;;;24.30;46.60;;;;;;1575371;73;691;-59
2021/10/23 07:03:07;;;;;;;;;;;24.40;46.60;;;;;;1575100;73;724;-59
2021/10/23 07:05:09;;;;;;;;;;;24.30;46.60;;;;;;1568870;73;1153;-57
2021/10/23 07:07:11;;;;;;;;;;;24.30;46.60;;;;;;1566405;73;772;-61
2021/10/23 07:09:13;;;;;;;;;;;24.30;46.60;;;;;;1587594;73;937;-57
2021/10/23 07:11:16;;;;;;;;;;;24.40;46.50;;;;;;1571191;73;680;-55
2021/10/23 07:13:17;;;;;;;;;;;24.30;46.60;;;;;;1574428;73;1915;-59
2021/10/23 07:15:19;;;;;;;;;;;24.30;46.50;;;;;;1584975;73;1118;-59
2021/10/23 07:17:21;;;;;;;;;;;24.30;46.50;;;;;;1567925;73;800;-59
2021/10/23 07:19:23;;;;;;;;;;;24.30;46.40;;;;;;1588093;73;731;-56
2021/10/23 07:21:25;;;;;;;;;;;24.30;46.20;;;;;;1577509;73;720;-55
2021/10/23 07:23:27;;;;;;;;;;;24.30;46.20;;;;;;1610523;72;695;-59
2021/10/23 07:25:29;;;;;;;;;;;24.30;46.20;;;;;;1584257;74;1170;-55
2021/10/23 07:27:31;;;;;;;;;;;24.30;46.20;;;;;;1606886;73;724;-58
2021/10/23 07:29:33;;;;;;;;;;;24.30;46.20;;;;;;1609611;72;705;-58
2021/10/23 07:31:34;;;;;;;;;;;24.20;46.00;;;;;;1609146;72;708;-58
2021/10/23 07:33:37;;;;;;;;;;;24.20;45.90;;;;;;1595383;73;1940;-58
2021/10/23 07:35:39;;;;;;;;;;;24.20;46.00;;;;;;1585181;73;1159;-58
2021/10/23 07:37:41;;;;;;;;;;;24.20;45.90;;;;;;1575403;74;729;-58
2021/10/23 07:39:42;;;;;;;;;;;24.20;45.90;;;;;;1596184;73;770;-55
2021/10/23 07:41:45;;;;;;;;;;;24.20;45.90;;;;;;1611413;73;757;-55
2021/10/23 07:43:47;;;;;;;;;;;24.20;45.90;;;;;;1605351;73;741;-58
2021/10/23 07:45:49;;;;;;;;;;;24.20;45.80;;;;;;1615119;72;1166;-57
2021/10/23 07:47:51;;;;;;;;;;;24.20;45.80;;;;;;1613946;73;766;-56
2021/10/23 07:49:53;;;;;;;;;;;24.20;45.80;;;;;;1608085;73;667;-56
2021/10/23 07:51:55;;;;;;;;;;;24.20;45.70;;;;;;1606856;73;767;-55
2021/10/23 07:53:57;;;;;;;;;;;24.20;45.80;;;;;;1606108;73;1946;-59
2021/10/23 07:55:59;;;;;;;;;;;24.20;45.70;;;;;;1612081;72;1136;-57
2021/10/23 07:58:02;;;;;;;;;;;24.20;45.70;;;;;;1612495;72;799;-56
2021/10/23 08:00:07;;;;;;;;;;;24.20;45.70;;;;;;1580805;74;800;-57
2021/10/23 08:02:10;;;;;;;;;;;24.20;45.70;;;;;;1580954;74;783;-58
2021/10/23 08:04:11;;;;;;;;;;;24.20;45.70;;;;;;1581186;74;757;-61
2021/10/23 08:06:13;;;;;;;;;;;24.20;45.70;;;;;;1581578;74;1097;-60
2021/10/23 08:08:15;;;;;;;;;;;24.20;45.70;;;;;;1611386;72;223448;-66
2021/10/23 08:10:17;;;;;;;;;;;24.20;45.70;;;;;;1602539;73;726;-66
2021/10/23 08:12:19;;;;;;;;;;;24.10;45.70;;;;;;1593311;74;745;-67
2021/10/23 08:14:21;;;;;;;;;;;24.20;45.70;;;;;;1631544;72;1941;-66
2021/10/23 08:16:23;;;;;;;;;;;24.20;45.70;;;;;;1624613;72;744;-68
2021/10/23 08:18:24;;;;;;;;;;;24.20;45.60;;;;;;1603687;73;1141;-68
2021/10/23 08:20:26;;;;;;;;;;;24.20;45.70;;;;;;1614751;73;815;-66
2021/10/23 08:22:28;;;;;;;;;;;24.20;45.80;;;;;;1604520;73;781;-68
2021/10/23 08:24:30;;;;;;;;;;;24.20;45.80;;;;;;1609544;73;716;-67
2021/10/23 08:26:32;;;;;;;;;;;24.10;45.90;;;;;;1630206;72;777;-66
2021/10/23 08:28:34;;;;;;;;;;;24.20;45.70;;;;;;1633194;71;1129;-66
2021/10/23 08:30:36;;;;;;;;;;;24.10;45.70;;;;;;1629849;72;708;-67
2021/10/23 08:32:38;;;;;;;;;;;24.10;46.00;;;;;;1629080;72;857;-67
2021/10/23 08:34:40;;;;;;;;;;;24.20;46.00;;;;;;1627655;72;1935;-66
2021/10/23 08:36:42;;;;;;;;;;;24.20;46.10;;;;;;1629236;72;745;-68
2021/10/23 08:38:44;;;;;;;;;;;24.20;46.30;;;;;;1622858;71;1139;-64
2021/10/23 08:40:45;;;;;;;;;;;24.20;46.50;;;;;;1614208;73;755;-63
2021/10/23 08:42:47;;;;;;;;;;;24.30;46.50;;;;;;1629493;73;797;-63
2021/10/23 08:44:49;;;;;;;;;;;24.30;46.40;;;;;;1619714;73;774;-64
2021/10/23 08:46:51;;;;;;;;;;;24.30;46.30;;;;;;1629193;73;754;-70
2021/10/23 08:48:53;;;;;;;;;;;24.40;46.30;;;;;;1626160;72;1233;-67
2021/10/23 08:50:55;;;;;;;;;;;24.40;46.10;;;;;;1620554;73;681;-67
2021/10/23 08:53:00;;;;;;;;;;;24.40;45.90;;;;;;1614446;73;739;-68
2021/10/23 08:55:01;;;;;;;;;;;24.30;45.80;;;;;;1626107;73;1925;-67
2021/10/23 08:57:03;;;;;;;;;;;24.30;45.80;;;;;;1629237;73;825;-67
2021/10/23 08:59:04;;;;;;;;;;;24.40;45.70;;;;;;1612809;73;1127;-67
2021/10/23 09:01:07;;;;;;;;;;;24.40;45.70;;;;;;1629734;73;737;-67
2021/10/23 09:03:09;;;;;;;;;;;24.40;45.60;;;;;;1605258;73;718;-67
2021/10/23 09:05:11;;;;;;;;;;;24.40;45.60;;;;;;1622575;73;787;-67
2021/10/23 09:07:13;;;;;;;;;;;24.50;45.70;;;;;;1628035;72;793;-68
2021/10/23 09:09:15;;;;;;;;;;;24.50;45.60;;;;;;1615048;73;1114;-67
2021/10/23 09:11:33;;;;;;;;;;;24.50;45.60;;;;;;1622151;73;729;-68
2021/10/23 09:13:40;;;;;;;;;;;24.50;45.60;;;;;;1624764;73;1934;-68
2021/10/23 09:15:39;;;;;;;;;;;24.50;45.60;;;;;;1619956;72;1258;-69
2021/10/23 09:17:41;;;;;;;;;;;24.50;45.60;;;;;;1627769;73;797;-68
2021/10/23 09:19:46;;;;;;;;;;;24.50;45.50;;;;;;1629363;72;1084;-68
2021/10/23 09:21:48;;;;;;;;;;;24.50;45.60;;;;;;1629584;73;688;-66
2021/10/23 09:23:53;;;;;;;;;;;24.50;45.50;;;;;;1628854;73;807;-68
2021/10/23 09:25:55;;;;;;;;;;;24.50;45.50;;;;;;1622622;73;793;-68
2021/10/23 09:28:09;;;;;;;;;;;24.50;45.50;;;;;;1619758;72;1104;-68
2021/10/23 09:30:13;;;;;;;;;;;24.50;45.50;;;;;;1628691;73;1658;-68
2021/10/23 09:32:15;;;;;;;;;;;24.50;45.50;;;;;;1605499;73;814;-66
2021/10/23 09:34:17;;;;;;;;;;;24.50;45.50;;;;;;1628734;73;1924;-68
2021/10/23 09:36:22;;;;;;;;;;;24.50;45.50;;;;;;1629639;73;781;-68
2021/10/23 09:38:25;;;;;;;;;;;24.50;45.40;;;;;;1615029;73;1101;-68
2021/10/23 09:40:27;;;;;;;;;;;24.50;45.50;;;;;;1629708;73;800;-68
2021/10/23 09:42:29;;;;;;;;;;;24.50;45.40;;;;;;1629262;73;700;-68
2021/10/23 09:44:31;;;;;;;;;;;24.60;45.40;;;;;;1628221;73;739;-69
2021/10/23 09:46:33;;;;;;;;;;;24.60;45.40;;;;;;1612974;73;772;-68
2021/10/23 09:48:41;;;;;;;;;;;24.60;45.40;;;;;;1628435;72;1161;-68
2021/10/23 09:50:43;;;;;;;;;;;24.50;45.30;;;;;;1627470;73;859;-64
2021/10/23 09:52:58;;;;;;;;;;;24.60;45.30;;;;;;1629576;73;775;-68
2021/10/23 09:55:09;;;;;;;;;;;24.60;45.30;;;;;;1614064;73;1924;-68
2021/10/23 09:57:14;;;;;;;;;;;24.50;45.20;;;;;;1629351;73;812;-69
2021/10/23 09:59:18;;;;;;;;;;;24.50;45.20;;;;;;1598697;73;1095;-68
2021/10/23 10:01:20;;;;;;;;;;;24.50;45.30;;;;;;1605616;74;1866;-68
2021/10/23 10:03:22;;;;;;;;;;;24.60;45.30;;;;;;1608756;74;771;-68
2021/10/23 10:05:24;;;;;;;;;;;24.50;45.30;;;;;;1594563;74;815;-68
2021/10/23 10:07:26;;;;;;;;;;;24.60;45.30;;;;;;1603206;74;696;-67
2021/10/23 10:09:28;;;;;;;;;;;24.50;45.30;;;;;;1595995;74;1113;-68
2021/10/23 10:11:30;;;;;;;;;;;24.50;45.20;;;;;;1592844;74;713;-68
2021/10/23 10:13:34;;;;;;;;;;;24.50;45.30;;;;;;1629272;73;750;-68
2021/10/23 10:15:36;;;;;;;;;;;24.50;45.30;;;;;;1594906;74;1921;-69
2021/10/23 10:17:39;;;;;;;;;;;24.40;45.20;;;;;;1567351;74;836;-68
2021/10/23 10:19:41;;;;;;;;;;;24.40;45.20;;;;;;1628912;72;1117;-68
2021/10/23 10:21:43;;;;;;;;;;;24.40;45.20;;;;;;1628864;73;759;-68
2021/10/23 10:23:45;;;;;;;;;;;24.40;45.30;;;;;;1629478;73;705;-68
2021/10/23 10:25:50;;;;;;;;;;;24.30;45.30;;;;;;1629750;73;708;-68
2021/10/23 10:27:55;;;;;;;;;;;24.40;45.40;;;;;;1607493;73;1780;-68
2021/10/23 10:29:59;;;;;;;;;;;24.30;45.40;;;;;;1620124;73;1070;-68
2021/10/23 10:32:10;;;;;;;;;;;24.30;45.40;;;;;;1629018;73;1647;-68
2021/10/23 10:34:12;;;;;;;;;;;24.30;45.40;;;;;;1627123;73;1913;-68
2021/10/23 10:42:54;;;;;;;;;;;24.30;45.50;;;;;;1620789;73;819;-68
2021/10/23 10:45:14;;;;;;;;;;;24.30;45.60;;;;;;1626024;73;810;-69
2021/10/23 10:47:16;;;;;;;;;;;24.30;45.50;;;;;;1586055;74;691;-67
2021/10/23 10:49:22;;;;;;;;;;;24.30;45.60;;;;;;1584354;73;1117;-68
2021/10/23 10:51:26;;;;;;;;;;;24.30;45.50;;;;;;1606080;73;1641;-69
2021/10/23 10:53:40;;;;;;;;;;;24.30;45.50;;;;;;1605874;73;1122;-68
2021/10/23 10:55:43;;;;;;;;;;;24.20;45.40;;;;;;1609987;73;1927;-68
2021/10/23 10:57:54;;;;;;;;;;;24.30;45.50;;;;;;1598565;74;562;-68
2021/10/23 10:59:56;;;;;;;;;;;24.30;45.50;;;;;;1596585;74;779;-68
2021/10/23 11:02:07;;;;;;;;;;;24.20;45.40;;;;;;1628586;73;673;-68
2021/10/23 11:04:12;;;;;;;;;;;24.20;45.40;;;;;;1627529;73;711;-68
2021/10/23 11:06:34;;;;;;;;;;;24.20;45.50;;;;;;1629731;73;731;-67
2021/10/23 11:08:36;;;;;;;;;;;24.30;45.50;;;;;;1609569;73;1109;-69
2021/10/23 11:10:51;;;;;;;;;;;24.20;45.50;;;;;;1629686;73;780;-69
2021/10/23 11:12:53;;;;;;;;;;;24.20;45.40;;;;;;1578038;73;1092;-67
2021/10/23 11:14:55;;;;;;;;;;;24.20;45.40;;;;;;1594675;73;1934;-68
2021/10/23 11:17:02;;;;;;;;;;;24.30;45.60;;;;;;1593583;74;825;-68
2021/10/23 11:19:04;;;;;;;;;;;24.20;45.50;;;;;;1605463;74;1205;-68
2021/10/23 11:21:08;;;;;;;;;;;24.20;45.50;;;;;;1602407;74;754;-68
2021/10/23 11:23:12;;;;;;;;;;;24.20;45.50;;;;;;1594829;74;803;-68
2021/10/23 11:25:16;;;;;;;;;;;24.20;45.50;;;;;;1594507;74;2024;-68
2021/10/23 11:27:23;;;;;;;;;;;24.20;45.50;;;;;;1595038;74;1760;-68
2021/10/23 11:29:26;;;;;;;;;;;24.20;45.50;;;;;;1619275;72;1106;-68
2021/10/23 11:31:28;;;;;;;;;;;24.10;45.60;;;;;;1617756;73;708;-68
2021/10/23 11:33:30;;;;;;;;;;;24.10;45.60;;;;;;1629136;73;888;-69
2021/10/23 11:35:36;;;;;;;;;;;24.20;45.60;;;;;;1614575;73;1926;-68
2021/10/23 11:37:39;;;;;;;;;;;24.10;45.60;;;;;;1616680;73;658;-68
2021/10/23 11:39:41;;;;;;;;;;;24.10;45.70;;;;;;1618578;72;1127;-68
2021/10/23 11:41:43;;;;;;;;;;;24.00;45.50;;;;;;1619091;73;744;-68
2021/10/23 11:43:45;;;;;;;;;;;24.10;45.70;;;;;;1617102;73;701;-69
2021/10/23 11:45:47;;;;;;;;;;;24.00;45.50;;;;;;1617743;73;643;-68
2021/10/23 11:47:50;;;;;;;;;;;24.00;45.60;;;;;;1613484;73;966;-68
2021/10/23 11:49:52;;;;;;;;;;;24.00;45.60;;;;;;1618932;73;652;-69
2021/10/23 11:51:54;;;;;;;;;;;24.10;45.70;;;;;;1615618;73;722;-68
2021/10/23 11:54:00;;;;;;;;;;;24.00;45.60;;;;;;1617391;73;739;-69
2021/10/23 11:56:04;;;;;;;;;;;24.00;45.50;;;;;;1618626;73;1908;-69
2021/10/23 11:58:07;;;;;;;;;;;24.00;45.60;;;;;;1613902;72;1114;-68
2021/10/23 12:00:14;;;;;;;;;;;24.00;45.60;;;;;;1616404;73;1845;-66
2021/10/23 12:02:16;;;;;;;;;;;24.00;45.60;;;;;;1615845;73;795;-66
2021/10/23 12:04:18;;;;;;;;;;;24.00;45.70;;;;;;1625891;73;764;-67
2021/10/23 12:06:20;;;;;;;;;;;24.00;45.60;;;;;;1596395;73;1054;-68
2021/10/23 12:08:23;;;;;;;;;;;24.00;45.70;;;;;;1594553;73;1130;-68
2021/10/23 12:10:25;;;;;;;;;;;24.00;45.70;;;;;;1623791;73;787;-68
2021/10/23 12:12:27;;;;;;;;;;;24.00;45.70;;;;;;1628024;73;787;-69
2021/10/23 12:14:29;;;;;;;;;;;24.00;45.70;;;;;;1628974;73;826;-68
2021/10/23 12:16:35;;;;;;;;;;;23.90;45.70;;;;;;1629218;73;1946;-69
2021/10/23 12:18:37;;;;;;;;;;;24.00;45.70;;;;;;1629654;72;1123;-68